Time;durP1;ratioP1;P1;durP2;ratioP2;P2;SDS_P1;SDS_P2;PMS_P1;PMS_P2;Temp;Humidity;BMP_temperature;BMP_pressure;BME280_temperature;BME280_humidity;BME280_pressure;Samples;Min_cycle;Max_cycle;Signal;HPM_P1;HPM_P2
2023/01/31 00:02:08;;;;;;;18.38;3.88;;;;;;;;;;4917210;29;20130;-66
2023/01/31 00:04:34;;;;;;;14.07;3.50;;;;;;;;;;4905950;29;20083;-66
2023/01/31 00:07:00;;;;;;;15.40;3.15;;;;;;;;;;4912026;29;20025;-66
2023/01/31 00:09:26;;;;;;;16.33;3.50;;;;;;;;;;4900774;29;20031;-66
2023/01/31 00:11:53;;;;;;;18.33;3.38;;;;;;;;;;4911437;29;20041;-66
2023/01/31 00:14:19;;;;;;;20.08;5.68;;;;;;;;;;4898959;29;20033;-66
2023/01/31 00:16:46;;;;;;;17.23;3.38;;;;;;;;;;4893707;29;20386;-66
2023/01/31 00:19:12;;;;;;;18.13;4.45;;;;;;;;;;4917903;29;20043;-66
2023/01/31 00:21:42;;;;;;;15.75;3.65;;;;;;;;;;4918074;29;20032;-66
2023/01/31 00:24:08;;;;;;;21.73;3.90;;;;;;;;;;4917014;29;20562;-66
2023/01/31 00:26:35;;;;;;;19.80;5.30;;;;;;;;;;4917254;29;20077;-66
2023/01/31 00:29:03;;;;;;;24.58;6.13;;;;;;;;;;4917459;29;20047;-66
2023/01/31 00:31:30;;;;;;;18.27;4.00;;;;;;;;;;4917308;29;20028;-66
2023/01/31 00:33:56;;;;;;;18.60;4.05;;;;;;;;;;4917257;29;20445;-66
2023/01/31 00:36:24;;;;;;;21.52;4.63;;;;;;;;;;4916823;29;20111;-66
2023/01/31 00:38:54;;;;;;;20.02;3.78;;;;;;;;;;4917194;29;20056;-66
2023/01/31 00:41:21;;;;;;;16.25;4.10;;;;;;;;;;4916802;29;20035;-66
2023/01/31 00:43:47;;;;;;;16.83;3.75;;;;;;;;;;4900037;29;20467;-66
2023/01/31 00:46:13;;;;;;;17.55;3.85;;;;;;;;;;4916891;29;20077;-66
2023/01/31 00:48:39;;;;;;;16.73;4.03;;;;;;;;;;4899932;29;20039;-66
2023/01/31 00:51:06;;;;;;;18.38;4.10;;;;;;;;;;4916820;29;20055;-66
2023/01/31 00:53:32;;;;;;;19.60;3.80;;;;;;;;;;4899838;29;20123;-66
2023/01/31 00:56:06;;;;;;;23.90;4.68;;;;;;;;;;4916332;29;20166;-65
2023/01/31 00:58:34;;;;;;;14.60;3.47;;;;;;;;;;4899708;29;20044;-66
2023/01/31 01:01:11;;;;;;;21.33;4.53;;;;;;;;;;4916729;29;20036;-66
2023/01/31 01:03:37;;;;;;;23.98;5.53;;;;;;;;;;4916732;29;20498;-65
2023/01/31 01:06:04;;;;;;;19.42;5.30;;;;;;;;;;4916572;29;20032;-66
2023/01/31 01:08:30;;;;;;;18.48;4.95;;;;;;;;;;4899153;29;20036;-65
2023/01/31 01:10:57;;;;;;;24.20;6.88;;;;;;;;;;4899790;29;20031;-66
2023/01/31 01:13:23;;;;;;;26.63;5.95;;;;;;;;;;4899326;29;20446;-66
2023/01/31 01:15:49;;;;;;;27.08;6.05;;;;;;;;;;4899792;29;20056;-66
2023/01/31 01:18:16;;;;;;;21.20;5.60;;;;;;;;;;4899306;29;20482;-66
2023/01/31 01:20:42;;;;;;;21.02;4.47;;;;;;;;;;4916161;29;20103;-66
2023/01/31 01:23:08;;;;;;;18.98;4.68;;;;;;;;;;4899426;29;20036;-66
2023/01/31 01:25:41;;;;;;;24.52;5.00;;;;;;;;;;4899353;29;20495;-66
2023/01/31 01:28:08;;;;;;;18.02;3.58;;;;;;;;;;4899519;29;20087;-66
2023/01/31 01:30:34;;;;;;;26.13;3.95;;;;;;;;;;4899126;29;20061;-65
2023/01/31 01:33:00;;;;;;;20.23;4.53;;;;;;;;;;4899364;29;20040;-65
2023/01/31 01:35:26;;;;;;;17.50;3.72;;;;;;;;;;4898589;29;20032;-65
2023/01/31 01:37:52;;;;;;;19.65;3.80;;;;;;;;;;4916124;29;20482;-65
2023/01/31 01:40:18;;;;;;;15.25;2.97;;;;;;;;;;4899147;29;20058;-66
2023/01/31 01:42:44;;;;;;;14.50;3.50;;;;;;;;;;4916080;29;20118;-66
2023/01/31 01:45:15;;;;;;;17.95;2.72;;;;;;;;;;4916081;29;20028;-66
2023/01/31 01:47:52;;;;;;;19.13;3.22;;;;;;;;;;4899155;29;20054;-65
2023/01/31 01:50:25;;;;;;;17.05;3.10;;;;;;;;;;4915707;29;20441;-66
2023/01/31 01:52:53;;;;;;;23.55;4.45;;;;;;;;;;4899149;29;20479;-66
2023/01/31 01:55:39;;;;;;;15.10;4.00;;;;;;;;;;4915776;29;20517;-66
2023/01/31 01:58:13;;;;;;;14.70;3.30;;;;;;;;;;4898853;29;20052;-65
2023/01/31 02:00:41;;;;;;;11.65;2.60;;;;;;;;;;4915807;29;20115;-65
2023/01/31 02:03:08;;;;;;;14.82;2.55;;;;;;;;;;4915877;29;20024;-65
2023/01/31 02:05:42;;;;;;;16.10;3.20;;;;;;;;;;4898518;29;20032;-65
2023/01/31 02:08:10;;;;;;;13.65;2.40;;;;;;;;;;4915841;29;20032;-65
2023/01/31 02:10:56;;;;;;;12.02;3.00;;;;;;;;;;4898728;29;20040;-66
2023/01/31 02:13:23;;;;;;;16.35;2.90;;;;;;;;;;4915564;29;20040;-65
2023/01/31 02:15:50;;;;;;;12.85;2.90;;;;;;;;;;4915817;29;20032;-65
2023/01/31 02:18:18;;;;;;;10.70;2.85;;;;;;;;;;4898336;29;20032;-66
2023/01/31 02:21:03;;;;;;;13.35;3.00;;;;;;;;;;4898679;29;20497;-66
2023/01/31 02:23:48;;;;;;;14.10;2.72;;;;;;;;;;4898670;29;20032;-65
2023/01/31 02:26:34;;;;;;;9.23;2.22;;;;;;;;;;4898836;29;20513;-65
2023/01/31 02:29:33;;;;;;;20.88;5.10;;;;;;;;;;4915655;29;20091;-65
2023/01/31 02:32:18;;;;;;;12.10;2.50;;;;;;;;;;4876924;29;20059;-66
2023/01/31 02:34:59;;;;;;;13.02;2.90;;;;;;;;;;4902134;29;20036;-66
2023/01/31 02:37:40;;;;;;;19.63;2.85;;;;;;;;;;4902171;29;20040;-66
2023/01/31 02:40:10;;;;;;;20.37;3.00;;;;;;;;;;4902372;29;20443;-65
2023/01/31 02:42:48;;;;;;;16.88;2.90;;;;;;;;;;4919112;29;20088;-65
2023/01/31 02:45:18;;;;;;;19.08;3.92;;;;;;;;;;4902314;29;20127;-66
2023/01/31 02:47:53;;;;;;;13.95;3.08;;;;;;;;;;4901785;29;20028;-66
2023/01/31 02:50:19;;;;;;;18.02;2.88;;;;;;;;;;4902194;29;20119;-66
2023/01/31 02:53:03;;;;;;;16.83;3.20;;;;;;;;;;4902092;29;20111;-66
2023/01/31 02:58:20;;;;;;;13.35;2.75;;;;;;;;;;4901892;29;20127;-66
2023/01/31 03:00:47;;;;;;;17.63;2.88;;;;;;;;;;4901870;29;20145;-65
2023/01/31 03:03:27;;;;;;;16.17;2.85;;;;;;;;;;4918588;29;20091;-65
2023/01/31 03:06:13;;;;;;;13.38;2.30;;;;;;;;;;4901702;29;20517;-65
2023/01/31 03:08:40;;;;;;;12.57;2.40;;;;;;;;;;4918423;29;20107;-66
2023/01/31 03:11:08;;;;;;;16.40;4.05;;;;;;;;;;4901885;29;20036;-66
2023/01/31 03:13:34;;;;;;;16.38;3.88;;;;;;;;;;4901553;29;20040;-66
2023/01/31 03:18:57;;;;;;;16.23;2.70;;;;;;;;;;4901426;29;20052;-66
2023/01/31 03:21:36;;;;;;;15.48;2.78;;;;;;;;;;4918521;29;20095;-66
2023/01/31 03:24:04;;;;;;;13.32;3.00;;;;;;;;;;4901766;29;20067;-65
2023/01/31 03:26:30;;;;;;;11.38;2.17;;;;;;;;;;4901498;29;20034;-65
2023/01/31 03:29:00;;;;;;;20.73;3.97;;;;;;;;;;4901512;29;20032;-66
2023/01/31 03:31:35;;;;;;;17.13;2.03;;;;;;;;;;4901095;29;20036;-66
2023/01/31 03:34:06;;;;;;;14.40;2.55;;;;;;;;;;4901417;29;20119;-66
2023/01/31 03:36:38;;;;;;;16.02;2.22;;;;;;;;;;4901192;29;20031;-65
2023/01/31 03:39:24;;;;;;;22.65;3.15;;;;;;;;;;4901313;29;20063;-65
2023/01/31 03:42:08;;;;;;;12.02;1.95;;;;;;;;;;4900517;29;20024;-65
2023/01/31 03:44:58;;;;;;;14.77;2.30;;;;;;;;;;4900675;29;20497;-66
2023/01/31 03:47:28;;;;;;;12.40;2.03;;;;;;;;;;4901095;29;20482;-66
2023/01/31 03:49:58;;;;;;;12.15;2.13;;;;;;;;;;4901139;29;20525;-66
2023/01/31 03:52:29;;;;;;;12.52;3.15;;;;;;;;;;4900916;29;20032;-66
2023/01/31 03:55:01;;;;;;;10.82;2.25;;;;;;;;;;4901097;29;20059;-66
2023/01/31 03:57:31;;;;;;;15.65;3.85;;;;;;;;;;4900734;29;20056;-65
2023/01/31 03:59:58;;;;;;;13.88;2.42;;;;;;;;;;4900608;29;20047;-65
2023/01/31 04:02:31;;;;;;;20.05;2.45;;;;;;;;;;4900546;29;20122;-66
2023/01/31 04:04:59;;;;;;;16.27;2.83;;;;;;;;;;4900679;29;20039;-66
2023/01/31 04:07:26;;;;;;;12.70;2.70;;;;;;;;;;4900880;29;20119;-66
2023/01/31 04:09:52;;;;;;;13.38;3.05;;;;;;;;;;4900553;29;20044;-66
2023/01/31 04:12:18;;;;;;;14.50;3.05;;;;;;;;;;4917798;29;20119;-66
2023/01/31 04:14:44;;;;;;;14.65;2.75;;;;;;;;;;4917140;29;20055;-65
2023/01/31 04:17:10;;;;;;;14.40;2.10;;;;;;;;;;4917849;29;20055;-66
2023/01/31 04:19:36;;;;;;;17.15;2.60;;;;;;;;;;4917596;29;20115;-65
2023/01/31 04:22:03;;;;;;;17.55;2.45;;;;;;;;;;4917551;29;20027;-66
2023/01/31 04:24:29;;;;;;;10.77;2.70;;;;;;;;;;4917434;29;20035;-66
2023/01/31 04:26:55;;;;;;;17.23;2.80;;;;;;;;;;4917425;29;20575;-66
2023/01/31 04:29:21;;;;;;;21.13;2.80;;;;;;;;;;4917102;29;20123;-66
2023/01/31 04:31:47;;;;;;;18.70;2.67;;;;;;;;;;4917159;29;20521;-66
2023/01/31 04:34:13;;;;;;;18.15;3.63;;;;;;;;;;4917265;29;20439;-66
2023/01/31 04:36:39;;;;;;;13.50;2.60;;;;;;;;;;4917050;29;20051;-66
2023/01/31 04:39:05;;;;;;;13.73;2.50;;;;;;;;;;4900235;29;20040;-66
2023/01/31 04:41:32;;;;;;;12.93;2.55;;;;;;;;;;4917340;29;20555;-66
2023/01/31 04:43:58;;;;;;;13.45;2.95;;;;;;;;;;4916710;29;20032;-66
2023/01/31 04:46:24;;;;;;;26.05;4.90;;;;;;;;;;4917123;29;20099;-65
2023/01/31 04:48:50;;;;;;;18.40;2.60;;;;;;;;;;4916899;29;20032;-66
2023/01/31 04:51:16;;;;;;;15.30;3.10;;;;;;;;;;4916946;29;20028;-66
2023/01/31 04:53:43;;;;;;;16.48;2.65;;;;;;;;;;4916568;29;20032;-65
2023/01/31 04:56:10;;;;;;;16.55;2.72;;;;;;;;;;4916841;29;20097;-65
2023/01/31 04:58:36;;;;;;;18.90;2.97;;;;;;;;;;4916322;29;20068;-66
2023/01/31 05:01:02;;;;;;;21.60;2.80;;;;;;;;;;4910100;29;20080;-66
2023/01/31 05:03:28;;;;;;;12.60;2.53;;;;;;;;;;4912305;29;20047;-66
2023/01/31 05:05:54;;;;;;;19.48;2.95;;;;;;;;;;4916109;29;20028;-66
2023/01/31 05:08:20;;;;;;;18.65;2.78;;;;;;;;;;4897927;29;20553;-66
2023/01/31 05:10:47;;;;;;;15.95;2.63;;;;;;;;;;4916453;29;20116;-66
2023/01/31 05:13:13;;;;;;;20.20;2.33;;;;;;;;;;4916560;29;20039;-66
2023/01/31 05:15:40;;;;;;;17.15;2.38;;;;;;;;;;4916527;29;20028;-66
2023/01/31 05:18:06;;;;;;;13.07;2.42;;;;;;;;;;4915899;29;20032;-66
2023/01/31 05:20:42;;;;;;;11.85;2.58;;;;;;;;;;4914920;29;20031;-66
2023/01/31 05:23:09;;;;;;;16.58;2.40;;;;;;;;;;4916368;29;20031;-66
2023/01/31 05:25:36;;;;;;;25.15;3.17;;;;;;;;;;4916385;29;20455;-66
2023/01/31 05:28:02;;;;;;;17.27;3.22;;;;;;;;;;4915309;29;20024;-66
2023/01/31 05:30:28;;;;;;;11.98;2.95;;;;;;;;;;4916402;29;20024;-65
2023/01/31 05:32:54;;;;;;;20.35;3.65;;;;;;;;;;4916118;29;20043;-66
2023/01/31 05:35:20;;;;;;;20.02;3.22;;;;;;;;;;4916402;29;20103;-66
2023/01/31 05:37:47;;;;;;;19.98;3.22;;;;;;;;;;4915312;29;20024;-66
2023/01/31 05:40:14;;;;;;;8.85;2.28;;;;;;;;;;4916384;29;20414;-66
2023/01/31 05:42:40;;;;;;;16.65;2.40;;;;;;;;;;4915828;29;20039;-66
2023/01/31 05:45:07;;;;;;;16.05;2.65;;;;;;;;;;4916139;29;20040;-66
2023/01/31 05:47:34;;;;;;;14.82;2.50;;;;;;;;;;4901988;29;20067;-66
2023/01/31 05:50:00;;;;;;;12.35;2.83;;;;;;;;;;4897087;29;20038;-66
2023/01/31 05:52:26;;;;;;;17.83;2.70;;;;;;;;;;4905138;29;20088;-66
2023/01/31 05:54:52;;;;;;;15.82;2.40;;;;;;;;;;4896145;29;20083;-66
2023/01/31 05:57:18;;;;;;;12.70;2.53;;;;;;;;;;4912246;29;20036;-66
2023/01/31 05:59:44;;;;;;;12.80;2.30;;;;;;;;;;4914464;29;20047;-66
2023/01/31 06:02:11;;;;;;;13.95;2.15;;;;;;;;;;4914782;29;20055;-66
2023/01/31 06:04:37;;;;;;;12.25;2.65;;;;;;;;;;4913792;29;20051;-66
2023/01/31 06:07:03;;;;;;;15.75;2.67;;;;;;;;;;4907475;29;20044;-66
2023/01/31 06:09:30;;;;;;;16.88;2.78;;;;;;;;;;4904249;29;20035;-66
2023/01/31 06:11:56;;;;;;;13.15;2.92;;;;;;;;;;4904504;29;20040;-66
2023/01/31 06:14:22;;;;;;;14.40;2.15;;;;;;;;;;4905255;29;20036;-66
2023/01/31 06:16:48;;;;;;;12.15;2.38;;;;;;;;;;4914765;29;20032;-66
2023/01/31 06:19:15;;;;;;;10.27;3.60;;;;;;;;;;4915417;29;20047;-66
2023/01/31 06:21:41;;;;;;;16.98;2.63;;;;;;;;;;4906288;29;20071;-66
2023/01/31 06:24:07;;;;;;;18.60;3.85;;;;;;;;;;4904571;29;20032;-66
2023/01/31 06:26:33;;;;;;;18.85;2.72;;;;;;;;;;4907917;29;20032;-67
2023/01/31 06:28:59;;;;;;;11.30;2.53;;;;;;;;;;4913611;29;20029;-66
2023/01/31 06:31:25;;;;;;;13.00;2.78;;;;;;;;;;4914819;29;20035;-68
2023/01/31 06:33:51;;;;;;;9.35;2.45;;;;;;;;;;4909901;29;20124;-70
2023/01/31 06:36:17;;;;;;;15.52;2.60;;;;;;;;;;4909395;29;20029;-69
2023/01/31 06:38:43;;;;;;;13.45;2.63;;;;;;;;;;4904464;29;20036;-70
2023/01/31 06:41:10;;;;;;;15.68;2.67;;;;;;;;;;4910147;29;20506;-68
2023/01/31 06:43:36;;;;;;;10.45;2.78;;;;;;;;;;4914101;29;20025;-69
2023/01/31 06:46:02;;;;;;;17.05;3.53;;;;;;;;;;4912665;29;20029;-68
2023/01/31 06:48:28;;;;;;;13.90;5.10;;;;;;;;;;4906767;29;20024;-66
2023/01/31 06:50:54;;;;;;;14.25;3.35;;;;;;;;;;4914337;29;20168;-65
2023/01/31 06:53:21;;;;;;;17.65;3.88;;;;;;;;;;4915189;29;20024;-65
2023/01/31 06:55:47;;;;;;;12.05;3.80;;;;;;;;;;4913871;29;20091;-65
2023/01/31 06:58:13;;;;;;;9.70;2.95;;;;;;;;;;4915012;29;20127;-66
2023/01/31 07:00:39;;;;;;;16.02;3.50;;;;;;;;;;4915234;29;20371;-65
2023/01/31 07:03:05;;;;;;;10.43;2.85;;;;;;;;;;4915044;29;20040;-65
2023/01/31 07:05:32;;;;;;;14.55;2.53;;;;;;;;;;4915491;29;20051;-65
2023/01/31 07:07:58;;;;;;;9.65;2.58;;;;;;;;;;4914945;29;20024;-65
2023/01/31 07:10:24;;;;;;;15.00;3.78;;;;;;;;;;4915471;29;20624;-65
2023/01/31 07:12:50;;;;;;;11.02;3.05;;;;;;;;;;4915267;29;20024;-66
2023/01/31 07:15:16;;;;;;;26.33;4.47;;;;;;;;;;4915355;29;20020;-65
2023/01/31 07:17:43;;;;;;;14.57;2.88;;;;;;;;;;4917477;29;20059;-65
2023/01/31 07:20:10;;;;;;;15.25;3.05;;;;;;;;;;4901310;29;20495;-66
2023/01/31 07:22:36;;;;;;;14.30;4.35;;;;;;;;;;4918185;29;20562;-66
2023/01/31 07:25:02;;;;;;;12.18;4.50;;;;;;;;;;4918417;29;20028;-65
2023/01/31 07:27:28;;;;;;;16.40;4.07;;;;;;;;;;4918477;29;20517;-65
2023/01/31 07:29:54;;;;;;;26.40;5.40;;;;;;;;;;4918421;29;20036;-66
2023/01/31 07:32:20;;;;;;;23.50;5.15;;;;;;;;;;4918410;29;20020;-65
2023/01/31 07:34:46;;;;;;;21.73;4.97;;;;;;;;;;4918388;29;20075;-65
2023/01/31 07:37:13;;;;;;;16.13;5.88;;;;;;;;;;4917694;29;20039;-65
2023/01/31 07:39:39;;;;;;;31.42;9.25;;;;;;;;;;4918385;29;20032;-65
2023/01/31 07:42:05;;;;;;;36.05;11.25;;;;;;;;;;4917881;29;20549;-65
2023/01/31 07:44:31;;;;;;;37.88;10.80;;;;;;;;;;4918040;29;20060;-65
2023/01/31 07:46:57;;;;;;;30.17;9.85;;;;;;;;;;4917960;29;20020;-65
2023/01/31 07:49:23;;;;;;;25.83;7.72;;;;;;;;;;4914524;29;20033;-65
2023/01/31 07:51:50;;;;;;;19.35;6.30;;;;;;;;;;4898991;29;20395;-65
2023/01/31 07:54:16;;;;;;;27.08;6.70;;;;;;;;;;4910270;29;20044;-65
2023/01/31 07:56:42;;;;;;;30.85;8.27;;;;;;;;;;4917436;29;20051;-65
2023/01/31 07:59:08;;;;;;;24.55;6.70;;;;;;;;;;4917488;29;20420;-65
2023/01/31 08:04:19;;;;;;;17.50;4.70;;;;;;;;;;4907475;29;20043;-66
2023/01/31 08:06:46;;;;;;;19.58;4.10;;;;;;;;;;4910123;29;20482;-66
2023/01/31 08:09:12;;;;;;;17.92;4.50;;;;;;;;;;4915228;29;20397;-66
2023/01/31 08:11:38;;;;;;;20.23;5.55;;;;;;;;;;4910279;29;20035;-66
2023/01/31 08:14:07;;;;;;;19.65;4.45;;;;;;;;;;4908135;29;20402;-66
2023/01/31 08:16:35;;;;;;;16.80;4.30;;;;;;;;;;4910974;29;20028;-66
2023/01/31 08:19:01;;;;;;;10.02;3.50;;;;;;;;;;4917473;29;20478;-66
2023/01/31 08:21:27;;;;;;;21.60;4.97;;;;;;;;;;4915348;29;20032;-66
2023/01/31 08:23:53;;;;;;;20.40;3.83;;;;;;;;;;4918007;29;20055;-66
2023/01/31 08:26:21;;;;;;;10.98;3.05;;;;;;;;;;4910624;29;20033;-66
2023/01/31 08:28:47;;;;;;;21.58;3.97;;;;;;;;;;4911661;29;20048;-66
2023/01/31 08:31:15;;;;;;;15.43;2.63;;;;;;;;;;4915861;29;20066;-66
2023/01/31 08:33:41;;;;;;;17.35;4.78;;;;;;;;;;4917453;29;20040;-66
2023/01/31 08:36:08;;;;;;;15.60;4.20;;;;;;;;;;4908149;29;20043;-66
2023/01/31 08:38:34;;;;;;;26.48;4.22;;;;;;;;;;4910806;29;20036;-66
2023/01/31 08:41:00;;;;;;;20.20;3.83;;;;;;;;;;4915438;29;20379;-66
2023/01/31 08:43:27;;;;;;;22.45;4.10;;;;;;;;;;4898562;29;20064;-66
2023/01/31 08:45:53;;;;;;;19.40;3.88;;;;;;;;;;4907166;29;20096;-66
2023/01/31 08:48:19;;;;;;;27.80;4.85;;;;;;;;;;4917005;29;20040;-66
2023/01/31 08:50:45;;;;;;;20.33;5.03;;;;;;;;;;4916005;29;20043;-66
2023/01/31 08:53:11;;;;;;;23.83;4.07;;;;;;;;;;4916110;29;20043;-66
2023/01/31 08:55:37;;;;;;;20.13;4.40;;;;;;;;;;4917252;29;20036;-66
2023/01/31 08:58:04;;;;;;;18.65;5.22;;;;;;;;;;4910099;29;20071;-66
2023/01/31 09:00:31;;;;;;;15.77;3.67;;;;;;;;;;4916703;29;20031;-66
2023/01/31 09:02:58;;;;;;;13.32;3.40;;;;;;;;;;4916926;29;20036;-66
2023/01/31 09:05:25;;;;;;;13.93;2.85;;;;;;;;;;4905297;29;20029;-66
2023/01/31 09:07:51;;;;;;;21.50;3.95;;;;;;;;;;4898005;29;20025;-66
2023/01/31 09:10:18;;;;;;;20.08;3.50;;;;;;;;;;4898024;29;20048;-66
2023/01/31 09:12:44;;;;;;;17.95;3.10;;;;;;;;;;4898228;29;20044;-66
2023/01/31 09:15:10;;;;;;;15.15;3.88;;;;;;;;;;4903902;29;20100;-66
2023/01/31 09:17:38;;;;;;;21.73;4.70;;;;;;;;;;4916766;29;20485;-66
2023/01/31 09:20:05;;;;;;;16.75;3.30;;;;;;;;;;4900807;29;20055;-66
2023/01/31 09:22:32;;;;;;;21.05;3.42;;;;;;;;;;4916781;29;20032;-66
2023/01/31 09:24:59;;;;;;;27.77;4.40;;;;;;;;;;4915785;29;20083;-66
2023/01/31 09:27:25;;;;;;;17.75;3.53;;;;;;;;;;4915097;29;20032;-66
2023/01/31 09:29:51;;;;;;;14.07;3.30;;;;;;;;;;4916150;29;20379;-66
2023/01/31 09:32:19;;;;;;;19.63;4.65;;;;;;;;;;4909468;29;20040;-66
2023/01/31 09:34:47;;;;;;;19.73;3.47;;;;;;;;;;4915824;29;20070;-66
2023/01/31 09:37:13;;;;;;;20.80;3.70;;;;;;;;;;4914240;29;20036;-66
2023/01/31 09:39:39;;;;;;;18.00;3.78;;;;;;;;;;4909474;29;20526;-66
2023/01/31 09:42:14;;;;;;;16.40;2.97;;;;;;;;;;4908952;29;20044;-66
2023/01/31 09:44:42;;;;;;;24.92;3.42;;;;;;;;;;4905896;29;20059;-66
2023/01/31 09:47:14;;;;;;;13.75;3.63;;;;;;;;;;4915397;29;20035;-66
2023/01/31 09:49:43;;;;;;;20.53;3.37;;;;;;;;;;4902689;29;20036;-66
2023/01/31 09:52:10;;;;;;;22.70;3.83;;;;;;;;;;4908311;29;20029;-66
2023/01/31 09:54:38;;;;;;;24.35;5.53;;;;;;;;;;4908676;29;20032;-66
2023/01/31 09:57:07;;;;;;;18.88;4.47;;;;;;;;;;4901207;29;20094;-66
2023/01/31 09:59:56;;;;;;;19.67;4.68;;;;;;;;;;4912685;29;20499;-66
2023/01/31 10:02:29;;;;;;;21.88;5.65;;;;;;;;;;4896583;29;20517;-66
2023/01/31 10:04:58;;;;;;;18.13;4.45;;;;;;;;;;4907914;29;20360;-66
2023/01/31 10:07:28;;;;;;;23.00;4.72;;;;;;;;;;4905778;29;20530;-66
2023/01/31 10:10:13;;;;;;;21.58;4.97;;;;;;;;;;4902597;29;20032;-66
2023/01/31 10:12:51;;;;;;;14.18;3.17;;;;;;;;;;4915791;29;20091;-66
2023/01/31 10:15:31;;;;;;;26.73;4.85;;;;;;;;;;4916299;29;20024;-66
2023/01/31 10:18:05;;;;;;;23.40;4.20;;;;;;;;;;4916054;29;20459;-66
2023/01/31 10:20:35;;;;;;;16.52;6.05;;;;;;;;;;4916234;29;20059;-66
2023/01/31 10:23:07;;;;;;;23.27;6.03;;;;;;;;;;4916408;29;20028;-66
2023/01/31 10:25:39;;;;;;;24.67;5.13;;;;;;;;;;4915360;29;20103;-66
2023/01/31 10:28:14;;;;;;;25.70;4.18;;;;;;;;;;4916265;29;20032;-66
2023/01/31 10:30:46;;;;;;;18.67;5.63;;;;;;;;;;4905513;29;20032;-66
2023/01/31 10:33:19;;;;;;;33.25;5.03;;;;;;;;;;4912756;29;20111;-66
2023/01/31 10:35:46;;;;;;;22.80;4.80;;;;;;;;;;4907775;29;20055;-66
2023/01/31 10:38:15;;;;;;;22.67;4.78;;;;;;;;;;4910150;29;20025;-66
2023/01/31 10:40:43;;;;;;;20.10;5.78;;;;;;;;;;4914904;29;20418;-66
2023/01/31 10:43:12;;;;;;;14.00;3.97;;;;;;;;;;4914060;29;20062;-66
2023/01/31 10:45:39;;;;;;;18.42;3.67;;;;;;;;;;4903733;29;20024;-66
2023/01/31 10:48:08;;;;;;;17.00;3.78;;;;;;;;;;4912692;29;20035;-66
2023/01/31 10:50:43;;;;;;;21.73;4.53;;;;;;;;;;4913625;29;20115;-66
2023/01/31 10:53:21;;;;;;;33.83;6.25;;;;;;;;;;4917640;29;20458;-66
2023/01/31 10:55:47;;;;;;;30.02;3.47;;;;;;;;;;4919026;29;20047;-66
2023/01/31 10:58:15;;;;;;;20.50;4.00;;;;;;;;;;4918536;29;20075;-66
2023/01/31 11:00:42;;;;;;;19.35;4.40;;;;;;;;;;4908301;29;20031;-66
2023/01/31 11:03:11;;;;;;;18.63;3.92;;;;;;;;;;4907011;29;20036;-66
2023/01/31 11:05:41;;;;;;;21.27;4.65;;;;;;;;;;4910479;29;20020;-66
2023/01/31 11:08:20;;;;;;;19.20;3.65;;;;;;;;;;4914511;29;20032;-65
2023/01/31 11:10:53;;;;;;;24.80;4.47;;;;;;;;;;4913591;29;20031;-65
2023/01/31 11:13:20;;;;;;;17.70;4.30;;;;;;;;;;4915525;29;20028;-65
2023/01/31 11:15:47;;;;;;;21.65;4.68;;;;;;;;;;4905371;29;20020;-65
2023/01/31 11:18:25;;;;;;;28.27;4.20;;;;;;;;;;4903917;29;20682;-65
2023/01/31 11:20:51;;;;;;;26.20;5.35;;;;;;;;;;4908483;29;20039;-65
2023/01/31 11:23:22;;;;;;;28.00;5.05;;;;;;;;;;4914712;29;20020;-65
2023/01/31 11:25:49;;;;;;;19.08;5.13;;;;;;;;;;4910335;29;20425;-65
2023/01/31 11:28:41;;;;;;;18.05;4.25;;;;;;;;;;4911348;29;20140;-65
2023/01/31 11:31:17;;;;;;;21.00;4.28;;;;;;;;;;4903848;29;20040;-65
2023/01/31 11:33:46;;;;;;;17.92;4.32;;;;;;;;;;4907291;29;20058;-65
2023/01/31 11:36:14;;;;;;;37.58;15.20;;;;;;;;;;4915803;29;20115;-65
2023/01/31 11:38:40;;;;;;;65.75;25.75;;;;;;;;;;4905605;29;20024;-65
2023/01/31 11:41:26;;;;;;;101.25;39.70;;;;;;;;;;4919330;29;20083;-65
2023/01/31 11:44:11;;;;;;;59.88;22.73;;;;;;;;;;4912670;29;20040;-65
2023/01/31 11:46:46;;;;;;;37.38;13.30;;;;;;;;;;4902456;29;20025;-65
2023/01/31 11:49:27;;;;;;;24.77;7.47;;;;;;;;;;4908706;29;20046;-65
2023/01/31 11:51:53;;;;;;;37.45;13.18;;;;;;;;;;4914899;29;20507;-65
2023/01/31 11:54:27;;;;;;;32.25;14.25;;;;;;;;;;4914817;29;20133;-66
2023/01/31 11:56:55;;;;;;;30.35;14.73;;;;;;;;;;4908768;29;20574;-65
2023/01/31 11:59:22;;;;;;;54.22;20.85;;;;;;;;;;4898531;29;20411;-65
2023/01/31 12:01:51;;;;;;;30.42;10.80;;;;;;;;;;4907672;29;20024;-65
2023/01/31 12:04:30;;;;;;;29.63;12.65;;;;;;;;;;4903746;29;20434;-66
2023/01/31 12:07:04;;;;;;;34.97;10.30;;;;;;;;;;4909611;29;20035;-65
2023/01/31 12:09:40;;;;;;;41.30;20.08;;;;;;;;;;4907023;29;20059;-64
2023/01/31 12:12:20;;;;;;;39.08;10.38;;;;;;;;;;4913711;29;20028;-64
2023/01/31 12:14:47;;;;;;;30.65;11.07;;;;;;;;;;4904788;29;20060;-67
2023/01/31 12:17:15;;;;;;;42.05;13.35;;;;;;;;;;4905795;29;20410;-65
2023/01/31 12:19:49;;;;;;;37.22;18.42;;;;;;;;;;4901052;29;20125;-65
2023/01/31 12:22:24;;;;;;;72.35;42.30;;;;;;;;;;4899961;29;20052;-65
2023/01/31 12:25:08;;;;;;;91.88;59.97;;;;;;;;;;4902894;29;20032;-64
2023/01/31 12:27:37;;;;;;;33.08;7.85;;;;;;;;;;4901367;29;20041;-65
2023/01/31 12:30:18;;;;;;;64.07;32.50;;;;;;;;;;4882154;29;20437;-66
2023/01/31 12:33:13;;;;;;;82.22;52.05;;;;;;;;;;4904266;29;20033;-66
2023/01/31 12:35:42;;;;;;;50.65;28.92;;;;;;;;;;4890294;29;20044;-64
2023/01/31 12:38:17;;;;;;;58.30;34.63;;;;;;;;;;4909210;29;20032;-65
2023/01/31 12:40:55;;;;;;;22.45;9.27;;;;;;;;;;4911732;29;20044;-65
2023/01/31 12:43:24;;;;;;;66.97;14.88;;;;;;;;;;4909433;29;20503;-65
2023/01/31 12:46:05;;;;;;;27.15;5.60;;;;;;;;;;4910257;29;20017;-65
2023/01/31 12:48:50;;;;;;;29.80;10.50;;;;;;;;;;4905508;29;20029;-65
2023/01/31 12:51:39;;;;;;;28.77;12.85;;;;;;;;;;4908657;29;20032;-66
2023/01/31 12:54:05;;;;;;;28.60;10.05;;;;;;;;;;4912941;29;20063;-66
2023/01/31 12:56:44;;;;;;;22.35;6.45;;;;;;;;;;4912624;29;20052;-66
2023/01/31 12:59:13;;;;;;;23.67;4.22;;;;;;;;;;4905842;29;20041;-66
2023/01/31 13:01:45;;;;;;;36.55;18.50;;;;;;;;;;4904080;29;20040;-66
2023/01/31 13:04:42;;;;;;;38.13;24.38;;;;;;;;;;4901325;29;20425;-66
2023/01/31 13:07:34;;;;;;;19.00;5.68;;;;;;;;;;4872730;29;20049;-66
2023/01/31 13:10:02;;;;;;;24.45;6.57;;;;;;;;;;4868384;29;20056;-66
2023/01/31 13:12:30;;;;;;;27.90;5.97;;;;;;;;;;4872785;29;20025;-66
2023/01/31 13:15:03;;;;;;;22.05;8.60;;;;;;;;;;4872169;29;20570;-66
2023/01/31 13:17:31;;;;;;;29.75;6.22;;;;;;;;;;4872651;29;20056;-67
2023/01/31 13:19:59;;;;;;;17.92;6.65;;;;;;;;;;4870538;29;20037;-66
2023/01/31 13:22:29;;;;;;;28.00;8.98;;;;;;;;;;4870566;29;20025;-66
2023/01/31 13:25:00;;;;;;;34.70;18.05;;;;;;;;;;4873071;29;20048;-66
2023/01/31 13:27:34;;;;;;;26.85;8.20;;;;;;;;;;4874749;29;20065;-66
2023/01/31 13:30:00;;;;;;;40.53;11.73;;;;;;;;;;4872070;29;20056;-66
2023/01/31 13:32:37;;;;;;;42.33;13.18;;;;;;;;;;4870023;29;20030;-66
2023/01/31 13:35:16;;;;;;;32.38;14.57;;;;;;;;;;4871835;29;20041;-66
2023/01/31 13:37:43;;;;;;;40.55;12.50;;;;;;;;;;4869423;29;20037;-66
2023/01/31 13:40:18;;;;;;;46.95;24.33;;;;;;;;;;4865996;29;20077;-66
2023/01/31 13:42:44;;;;;;;29.42;7.35;;;;;;;;;;4877101;29;20174;-66
2023/01/31 13:45:19;;;;;;;22.70;5.35;;;;;;;;;;4904717;29;20013;-66
2023/01/31 13:47:47;;;;;;;17.83;4.45;;;;;;;;;;4910547;29;20029;-66
2023/01/31 13:50:16;;;;;;;14.60;4.15;;;;;;;;;;4906403;29;20043;-66
2023/01/31 13:52:49;;;;;;;19.40;2.90;;;;;;;;;;4903172;29;20120;-66
2023/01/31 13:55:20;;;;;;;19.77;3.97;;;;;;;;;;4899972;29;20051;-66
2023/01/31 13:57:54;;;;;;;13.40;2.97;;;;;;;;;;4904184;29;20049;-66
2023/01/31 14:00:36;;;;;;;18.77;4.28;;;;;;;;;;4908723;29;20036;-66
2023/01/31 14:03:08;;;;;;;17.92;5.32;;;;;;;;;;4901239;29;20032;-66
2023/01/31 14:05:40;;;;;;;19.23;2.63;;;;;;;;;;4896144;29;20414;-66
2023/01/31 14:08:25;;;;;;;14.57;3.33;;;;;;;;;;4907044;29;20387;-66
2023/01/31 14:10:51;;;;;;;20.05;3.50;;;;;;;;;;4900039;29;20029;-66
2023/01/31 14:13:25;;;;;;;16.05;3.28;;;;;;;;;;4907246;29;20024;-66
2023/01/31 14:15:52;;;;;;;18.55;4.07;;;;;;;;;;4899019;29;20029;-66
2023/01/31 14:18:37;;;;;;;16.92;3.45;;;;;;;;;;4897969;29;20017;-66
2023/01/31 14:21:22;;;;;;;16.05;4.78;;;;;;;;;;4910613;29;20355;-66
2023/01/31 14:23:49;;;;;;;23.48;4.55;;;;;;;;;;4885585;29;20376;-66
2023/01/31 14:26:30;;;;;;;18.63;2.30;;;;;;;;;;4899046;29;20103;-66
2023/01/31 14:29:00;;;;;;;22.67;3.20;;;;;;;;;;4898836;29;20044;-66
2023/01/31 14:31:26;;;;;;;13.70;2.67;;;;;;;;;;4912917;29;20486;-66
2023/01/31 14:33:56;;;;;;;20.27;3.42;;;;;;;;;;4913787;29;20036;-66
2023/01/31 14:36:22;;;;;;;28.83;4.35;;;;;;;;;;4914606;29;20060;-66
2023/01/31 14:39:03;;;;;;;67.47;29.55;;;;;;;;;;4902739;29;20052;-66
2023/01/31 14:41:32;;;;;;;38.50;17.63;;;;;;;;;;4902546;29;20032;-66
2023/01/31 14:44:17;;;;;;;22.30;4.15;;;;;;;;;;4900651;29;20017;-66
2023/01/31 14:47:00;;;;;;;15.25;4.35;;;;;;;;;;4882480;29;20461;-66
2023/01/31 14:49:44;;;;;;;22.30;3.75;;;;;;;;;;4903266;29;20051;-66
2023/01/31 14:52:10;;;;;;;16.30;3.72;;;;;;;;;;4902541;29;20115;-66
2023/01/31 14:54:39;;;;;;;16.52;3.83;;;;;;;;;;4901799;29;20061;-66